createdAt,value
2022-08-28T00:00:32.494Z,1005.48
2022-08-28T00:03:05.759Z,1005.50
2022-08-28T00:05:38.466Z,1005.51
2022-08-28T00:08:11.829Z,1005.51
2022-08-28T00:10:44.436Z,1005.53
2022-08-28T00:13:17.543Z,1005.53
2022-08-28T00:15:50.673Z,1005.53
2022-08-28T00:18:23.484Z,1005.53
2022-08-28T00:20:56.517Z,1005.55
2022-08-28T00:23:42.388Z,1005.54
2022-08-28T00:26:02.590Z,1005.54
2022-08-28T00:28:35.517Z,1005.54
2022-08-28T00:31:08.654Z,1005.56
2022-08-28T00:33:41.538Z,1005.56
2022-08-28T00:36:14.546Z,1005.56
2022-08-28T00:38:47.529Z,1005.57
2022-08-28T00:41:24.949Z,1005.57
2022-08-28T00:43:53.514Z,1005.57
2022-08-28T00:46:26.629Z,1005.57
2022-08-28T00:48:59.591Z,1005.57
2022-08-28T00:51:32.528Z,1005.55
2022-08-28T00:54:07.877Z,1005.54
2022-08-28T00:56:38.626Z,1005.53
2022-08-28T00:59:11.545Z,1005.52
2022-08-28T01:01:44.741Z,1005.52
2022-08-28T01:04:17.453Z,1005.50
2022-08-28T01:06:50.659Z,1005.51
2022-08-28T01:09:23.510Z,1005.52
2022-08-28T01:11:56.655Z,1005.53
2022-08-28T01:14:29.652Z,1005.53
2022-08-28T01:17:02.599Z,1005.53
2022-08-28T01:19:35.598Z,1005.52
2022-08-28T01:22:08.601Z,1005.53
2022-08-28T01:24:41.614Z,1005.53
2022-08-28T01:27:14.361Z,1005.55
2022-08-28T01:29:47.858Z,1005.56
2022-08-28T01:32:20.578Z,1005.56
2022-08-28T01:34:53.627Z,1005.54
2022-08-28T01:37:26.687Z,1005.55
2022-08-28T01:39:59.706Z,1005.57
2022-08-28T01:42:32.578Z,1005.59
2022-08-28T01:45:05.654Z,1005.58
2022-08-28T01:47:38.650Z,1005.58
2022-08-28T01:50:11.622Z,1005.58
2022-08-28T01:52:44.704Z,1005.57
2022-08-28T01:55:20.644Z,1005.58
2022-08-28T01:57:50.692Z,1005.59
2022-08-28T02:00:23.624Z,1005.58
2022-08-28T02:02:56.677Z,1005.59
2022-08-28T02:05:29.663Z,1005.60
2022-08-28T02:08:02.402Z,1005.61
2022-08-28T02:10:35.388Z,1005.61
2022-08-28T02:13:08.653Z,1005.62
2022-08-28T02:15:41.821Z,1005.63
2022-08-28T02:18:14.942Z,1005.61
2022-08-28T02:20:47.700Z,1005.61
2022-08-28T02:23:20.623Z,1005.62
2022-08-28T02:25:53.709Z,1005.63
2022-08-28T02:28:26.639Z,1005.64
2022-08-28T02:30:59.788Z,1005.64
2022-08-28T02:33:32.705Z,1005.67
2022-08-28T02:36:05.692Z,1005.68
2022-08-28T02:38:38.792Z,1005.69
2022-08-28T02:41:11.649Z,1005.71
2022-08-28T02:43:44.751Z,1005.71
2022-08-28T02:46:17.727Z,1005.72
2022-08-28T02:48:50.782Z,1005.70
2022-08-28T02:51:23.692Z,1005.71
2022-08-28T02:53:56.798Z,1005.72
2022-08-28T02:56:29.679Z,1005.72
2022-08-28T02:59:02.810Z,1005.71
2022-08-28T03:01:35.766Z,1005.70
2022-08-28T03:04:08.763Z,1005.70
2022-08-28T03:06:41.773Z,1005.70
2022-08-28T03:09:14.696Z,1005.68
2022-08-28T03:11:47.683Z,1005.68
2022-08-28T03:14:20.708Z,1005.69
2022-08-28T03:16:53.806Z,1005.68
2022-08-28T03:19:26.848Z,1005.68
2022-08-28T03:21:59.764Z,1005.70
2022-08-28T03:24:32.834Z,1005.70
2022-08-28T03:27:05.728Z,1005.71
2022-08-28T03:29:38.813Z,1005.71
2022-08-28T03:32:11.787Z,1005.70
2022-08-28T03:34:44.808Z,1005.69
2022-08-28T03:37:17.751Z,1005.69
2022-08-28T03:39:50.812Z,1005.69
2022-08-28T03:42:23.761Z,1005.69
2022-08-28T03:44:56.836Z,1005.69
2022-08-28T03:47:29.879Z,1005.70
2022-08-28T03:50:02.794Z,1005.70
2022-08-28T03:52:35.850Z,1005.71
2022-08-28T03:55:08.817Z,1005.71
2022-08-28T03:57:42.001Z,1005.73
2022-08-28T04:00:15.784Z,1005.74
2022-08-28T04:02:48.604Z,1005.77
2022-08-28T04:05:21.908Z,1005.77
2022-08-28T04:07:54.838Z,1005.78
2022-08-28T04:10:27.784Z,1005.79
2022-08-28T04:13:00.840Z,1005.78
2022-08-28T04:15:33.860Z,1005.78
2022-08-28T04:18:06.805Z,1005.80
2022-08-28T04:20:39.567Z,1005.81
2022-08-28T04:23:12.684Z,1005.84
2022-08-28T04:25:45.552Z,1005.85
2022-08-28T04:28:18.793Z,1005.86
2022-08-28T04:30:51.893Z,1005.87
2022-08-28T04:33:24.826Z,1005.88
2022-08-28T04:35:57.837Z,1005.88
2022-08-28T04:38:30.954Z,1005.88
2022-08-28T04:41:03.852Z,1005.88
2022-08-28T04:43:36.849Z,1005.89
2022-08-28T04:46:09.953Z,1005.90
2022-08-28T04:48:42.903Z,1005.91
2022-08-28T04:51:15.891Z,1005.93
2022-08-28T04:53:48.743Z,1005.94
2022-08-28T04:56:21.879Z,1005.96
2022-08-28T04:58:54.955Z,1005.98
2022-08-28T05:01:27.963Z,1006.02
2022-08-28T05:04:00.892Z,1006.04
2022-08-28T05:06:33.922Z,1006.06
2022-08-28T05:09:06.892Z,1006.08
2022-08-28T05:11:39.988Z,1006.10
2022-08-28T05:14:16.100Z,1006.12
2022-08-28T05:16:45.946Z,1006.14
2022-08-28T05:19:18.940Z,1006.15
2022-08-28T05:21:51.783Z,1006.16
2022-08-28T05:24:24.642Z,1006.18
2022-08-28T05:26:57.997Z,1006.21
2022-08-28T05:29:30.964Z,1006.23
2022-08-28T05:32:04.006Z,1006.24
2022-08-28T05:34:37.004Z,1006.23
2022-08-28T05:37:09.951Z,1006.24
2022-08-28T05:39:42.934Z,1006.25
2022-08-28T05:42:15.910Z,1006.27
2022-08-28T05:44:49.043Z,1006.30
2022-08-28T05:47:21.914Z,1006.33
2022-08-28T05:49:55.033Z,1006.35
2022-08-28T05:52:27.996Z,1006.38
2022-08-28T05:55:01.042Z,1006.42
2022-08-28T05:57:33.641Z,1006.43
2022-08-28T06:00:06.973Z,1006.46
2022-08-28T06:02:40.040Z,1006.47
2022-08-28T06:05:13.351Z,1006.47
2022-08-28T06:07:45.980Z,1006.48
2022-08-28T06:10:19.003Z,1006.50
2022-08-28T06:12:51.973Z,1006.52
2022-08-28T06:15:24.917Z,1006.52
2022-08-28T06:17:58.019Z,1006.52
2022-08-28T06:20:30.970Z,1006.52
2022-08-28T06:23:04.089Z,1006.52
2022-08-28T06:25:37.007Z,1006.54
2022-08-28T06:28:10.036Z,1006.55
2022-08-28T06:30:57.347Z,1006.57
2022-08-28T06:33:15.700Z,1006.58
2022-08-28T06:35:49.092Z,1006.58
2022-08-28T06:38:22.021Z,1006.60
2022-08-28T06:40:55.067Z,1006.60
2022-08-28T06:43:27.731Z,1006.62
2022-08-28T06:46:01.051Z,1006.65
2022-08-28T06:48:34.106Z,1006.65
2022-08-28T06:51:07.029Z,1006.68
2022-08-28T06:53:40.004Z,1006.69
2022-08-28T06:56:13.643Z,1006.71
2022-08-28T06:58:50.294Z,1006.73
2022-08-28T07:01:18.804Z,1006.75
2022-08-28T07:03:51.742Z,1006.76
2022-08-28T07:06:24.757Z,1006.76
2022-08-28T07:08:57.826Z,1006.76
2022-08-28T07:11:30.819Z,1006.76
2022-08-28T07:14:03.872Z,1006.76
2022-08-28T07:16:37.154Z,1006.78
2022-08-28T07:19:10.655Z,1006.80
2022-08-28T07:21:43.183Z,1006.80
2022-08-28T07:24:16.140Z,1006.83
2022-08-28T07:26:49.182Z,1006.84
2022-08-28T07:29:22.050Z,1006.87
2022-08-28T07:31:55.056Z,1006.89
2022-08-28T07:34:27.950Z,1006.90
2022-08-28T07:37:00.812Z,1006.92
2022-08-28T07:39:34.182Z,1006.93
2022-08-28T07:42:06.929Z,1006.94
2022-08-28T07:44:40.104Z,1006.96
2022-08-28T07:47:13.194Z,1006.99
2022-08-28T07:49:46.099Z,1007.01
2022-08-28T07:52:18.810Z,1007.03
2022-08-28T07:54:51.912Z,1007.06
2022-08-28T07:57:24.844Z,1007.08
2022-08-28T07:59:57.991Z,1007.11
2022-08-28T08:02:30.937Z,1007.13
2022-08-28T08:05:03.855Z,1007.13
2022-08-28T08:07:41.923Z,1007.14
2022-08-28T08:10:12.885Z,1007.13
2022-08-28T08:12:45.957Z,1007.15
2022-08-28T08:15:19.138Z,1007.16
2022-08-28T08:17:51.995Z,1007.17
2022-08-28T08:20:24.860Z,1007.18
2022-08-28T08:22:57.994Z,1007.20
2022-08-28T08:25:31.066Z,1007.19
2022-08-28T08:28:03.941Z,1007.20
2022-08-28T08:30:37.028Z,1007.22
2022-08-28T08:33:10.011Z,1007.22
2022-08-28T08:35:42.983Z,1007.23
2022-08-28T08:38:16.243Z,1007.24
2022-08-28T08:40:49.276Z,1007.27
2022-08-28T08:43:21.871Z,1007.27
2022-08-28T08:45:55.188Z,1007.28
2022-08-28T08:48:27.962Z,1007.30
2022-08-28T08:51:00.900Z,1007.30
2022-08-28T08:53:33.898Z,1007.30
2022-08-28T08:56:06.964Z,1007.31
2022-08-28T08:58:40.072Z,1007.32
2022-08-28T09:01:12.969Z,1007.31
2022-08-28T09:03:46.128Z,1007.32
2022-08-28T09:06:18.915Z,1007.32
2022-08-28T09:08:52.208Z,1007.30
2022-08-28T09:11:25.025Z,1007.31
2022-08-28T09:13:57.988Z,1007.31
2022-08-28T09:16:31.123Z,1007.32
2022-08-28T09:19:04.353Z,1007.32
2022-08-28T09:21:37.091Z,1007.33
2022-08-28T09:24:16.046Z,1007.34
2022-08-28T09:26:49.029Z,1007.36
2022-08-28T09:29:25.201Z,1007.37
2022-08-28T09:31:58.003Z,1007.39
2022-08-28T09:34:34.360Z,1007.42
2022-08-28T09:37:03.974Z,1007.44
2022-08-28T09:39:36.990Z,1007.44
2022-08-28T09:42:09.967Z,1007.44
2022-08-28T09:44:42.980Z,1007.45
2022-08-28T09:47:15.990Z,1007.46
2022-08-28T09:49:48.984Z,1007.44
2022-08-28T09:52:25.264Z,1007.44
2022-08-28T09:54:54.983Z,1007.42
2022-08-28T09:57:28.187Z,1007.42
2022-08-28T10:00:00.999Z,1007.40
2022-08-28T10:02:34.277Z,1007.38
2022-08-28T10:05:07.026Z,1007.38
2022-08-28T10:07:40.201Z,1007.38
2022-08-28T10:10:13.008Z,1007.36
2022-08-28T10:12:46.073Z,1007.36
2022-08-28T10:15:19.048Z,1007.34
2022-08-28T10:17:52.317Z,1007.37
2022-08-28T10:20:25.034Z,1007.36
2022-08-28T10:22:58.056Z,1007.37
2022-08-28T10:25:31.191Z,1007.37
2022-08-28T10:28:04.025Z,1007.37
2022-08-28T10:30:37.155Z,1007.35
2022-08-28T10:33:10.057Z,1007.36
2022-08-28T10:35:43.119Z,1007.34
2022-08-28T10:38:16.054Z,1007.35
2022-08-28T10:40:49.072Z,1007.36
2022-08-28T10:43:22.276Z,1007.37
2022-08-28T10:45:55.162Z,1007.36
2022-08-28T10:48:28.062Z,1007.34
2022-08-28T10:51:01.070Z,1007.33
2022-08-28T10:53:34.279Z,1007.32
2022-08-28T10:56:07.175Z,1007.30
2022-08-28T10:58:40.101Z,1007.30
2022-08-28T11:01:17.214Z,1007.28
2022-08-28T11:03:50.211Z,1007.26
2022-08-28T11:06:23.319Z,1007.25
2022-08-28T11:08:56.282Z,1007.23
2022-08-28T11:11:29.293Z,1007.21
2022-08-28T11:14:02.085Z,1007.20
2022-08-28T11:16:35.153Z,1007.20
2022-08-28T11:19:08.317Z,1007.19
2022-08-28T11:21:41.243Z,1007.19
2022-08-28T11:24:14.291Z,1007.17
2022-08-28T11:26:47.500Z,1007.18
2022-08-28T11:29:20.212Z,1007.17
2022-08-28T11:31:53.336Z,1007.17
2022-08-28T11:34:26.131Z,1007.17
2022-08-28T11:36:59.205Z,1007.18
2022-08-28T11:39:32.140Z,1007.19
2022-08-28T11:42:05.183Z,1007.19
2022-08-28T11:44:38.180Z,1007.17
2022-08-28T11:47:11.323Z,1007.16
2022-08-28T11:49:44.268Z,1007.15
2022-08-28T11:52:17.167Z,1007.13
2022-08-28T11:54:50.195Z,1007.12
2022-08-28T11:57:27.106Z,1007.12
2022-08-28T12:00:00.333Z,1007.14
2022-08-28T12:02:33.347Z,1007.14
2022-08-28T12:05:06.235Z,1007.15
2022-08-28T12:07:39.359Z,1007.15
2022-08-28T12:10:12.187Z,1007.14
2022-08-28T12:12:45.199Z,1007.14
2022-08-28T12:15:18.216Z,1007.13
2022-08-28T12:17:51.257Z,1007.12
2022-08-28T12:20:24.175Z,1007.11
2022-08-28T12:22:57.269Z,1007.12
2022-08-28T12:25:30.307Z,1007.11
2022-08-28T12:28:03.371Z,1007.12
2022-08-28T12:30:36.414Z,1007.13
2022-08-28T12:33:09.303Z,1007.10
2022-08-28T12:35:43.797Z,1007.10
2022-08-28T12:38:15.212Z,1007.09
2022-08-28T12:40:48.205Z,1007.08
2022-08-28T12:43:21.427Z,1007.07
2022-08-28T12:45:54.301Z,1007.06
2022-08-28T12:48:27.293Z,1007.04
2022-08-28T12:51:00.238Z,1007.04
2022-08-28T12:53:33.428Z,1007.00
2022-08-28T12:56:06.228Z,1006.99
2022-08-28T12:58:39.258Z,1006.97
2022-08-28T13:01:12.356Z,1006.97
2022-08-28T13:03:45.249Z,1006.96
2022-08-28T13:06:18.287Z,1006.95
2022-08-28T13:08:51.297Z,1006.91
2022-08-28T13:11:24.557Z,1006.88
2022-08-28T13:13:57.279Z,1006.87
2022-08-28T13:16:30.389Z,1006.85
2022-08-28T13:19:03.622Z,1006.83
2022-08-28T13:21:36.690Z,1006.80
2022-08-28T13:24:09.466Z,1006.79
2022-08-28T13:26:42.273Z,1006.77
2022-08-28T13:29:15.463Z,1006.76
2022-08-28T13:31:48.469Z,1006.75
2022-08-28T13:34:21.297Z,1006.72
2022-08-28T13:36:54.583Z,1006.69
2022-08-28T13:39:27.292Z,1006.68
2022-08-28T13:42:00.323Z,1006.66
2022-08-28T13:44:33.604Z,1006.64
2022-08-28T13:47:06.427Z,1006.63
2022-08-28T13:49:39.357Z,1006.62
2022-08-28T13:52:12.468Z,1006.61
2022-08-28T13:54:45.707Z,1006.58
2022-08-28T13:57:18.611Z,1006.57
2022-08-28T13:59:55.529Z,1006.55
2022-08-28T14:02:24.804Z,1006.55
2022-08-28T14:04:57.340Z,1006.56
2022-08-28T14:07:30.494Z,1006.57
2022-08-28T14:10:03.582Z,1006.56
2022-08-28T14:12:36.501Z,1006.58
2022-08-28T14:15:09.529Z,1006.58
2022-08-28T14:17:42.483Z,1006.58
2022-08-28T14:20:15.692Z,1006.58
2022-08-28T14:22:48.776Z,1006.57
2022-08-28T14:25:21.613Z,1006.55
2022-08-28T14:27:54.518Z,1006.56
2022-08-28T14:30:27.524Z,1006.55
2022-08-28T14:33:00.373Z,1006.55
2022-08-28T14:35:33.389Z,1006.53
2022-08-28T14:38:06.439Z,1006.51
2022-08-28T14:40:39.515Z,1006.49
2022-08-28T14:43:12.801Z,1006.48
2022-08-28T14:45:45.469Z,1006.47
2022-08-28T14:48:18.697Z,1006.46
2022-08-28T14:50:51.740Z,1006.45
2022-08-28T14:53:24.710Z,1006.45
2022-08-28T14:55:57.399Z,1006.43
2022-08-28T14:58:30.792Z,1006.40
2022-08-28T15:01:03.695Z,1006.38
2022-08-28T15:03:36.857Z,1006.38
2022-08-28T15:06:09.424Z,1006.35
2022-08-28T15:08:42.526Z,1006.34
2022-08-28T15:11:18.656Z,1006.34
2022-08-28T15:14:02.427Z,1006.34
2022-08-28T15:16:41.411Z,1006.34
2022-08-28T15:19:14.721Z,1006.33
2022-08-28T15:21:47.744Z,1006.32
2022-08-28T15:24:20.443Z,1006.31
2022-08-28T15:26:53.458Z,1006.30
2022-08-28T15:29:26.477Z,1006.28
2022-08-28T15:31:59.547Z,1006.26
2022-08-28T15:34:32.580Z,1006.26
2022-08-28T15:37:07.901Z,1006.25
2022-08-28T15:39:38.492Z,1006.24
2022-08-28T15:42:11.807Z,1006.22
2022-08-28T15:44:44.620Z,1006.22
2022-08-28T15:47:17.484Z,1006.22
2022-08-28T15:49:52.038Z,1006.20
2022-08-28T15:52:23.486Z,1006.21
2022-08-28T15:54:56.837Z,1006.19
2022-08-28T15:57:29.628Z,1006.21
2022-08-28T16:00:02.695Z,1006.20
2022-08-28T16:02:35.551Z,1006.20
2022-08-28T16:05:08.871Z,1006.20
2022-08-28T16:07:41.782Z,1006.19
2022-08-28T16:10:14.675Z,1006.21
2022-08-28T16:12:47.893Z,1006.22
2022-08-28T16:15:21.474Z,1006.22
2022-08-28T16:17:53.530Z,1006.22
2022-08-28T16:20:26.804Z,1006.22
2022-08-28T16:22:59.847Z,1006.22
2022-08-28T16:25:32.768Z,1006.23
2022-08-28T16:28:05.546Z,1006.24
2022-08-28T16:30:38.638Z,1006.24
2022-08-28T16:33:11.551Z,1006.24
2022-08-28T16:35:49.463Z,1006.23
2022-08-28T16:38:17.787Z,1006.21
2022-08-28T16:40:50.552Z,1006.18
2022-08-28T16:43:23.839Z,1006.17
2022-08-28T16:45:56.937Z,1006.14
2022-08-28T16:48:32.490Z,1006.13
2022-08-28T16:51:05.646Z,1006.13
2022-08-28T16:53:38.744Z,1006.12
2022-08-28T16:56:11.696Z,1006.13
2022-08-28T16:58:44.727Z,1006.13
2022-08-28T17:01:31.679Z,1006.13
2022-08-28T17:04:18.565Z,1006.13
2022-08-28T17:06:51.714Z,1006.12
2022-08-28T17:09:24.763Z,1006.13
2022-08-28T17:11:57.728Z,1006.12
2022-08-28T17:14:30.753Z,1006.12
2022-08-28T17:17:03.807Z,1006.12
2022-08-28T17:19:38.268Z,1006.11
2022-08-28T17:22:09.702Z,1006.11
2022-08-28T17:24:42.822Z,1006.10
2022-08-28T17:27:15.775Z,1006.10
2022-08-28T17:29:48.741Z,1006.09
2022-08-28T17:32:21.843Z,1006.08
2022-08-28T17:34:54.744Z,1006.08
2022-08-28T17:37:27.768Z,1006.09
2022-08-28T17:40:06.784Z,1006.12
2022-08-28T17:42:39.699Z,1006.14
2022-08-28T17:45:12.805Z,1006.16
2022-08-28T17:47:45.696Z,1006.19
2022-08-28T17:50:18.671Z,1006.20
2022-08-28T17:52:51.797Z,1006.23
2022-08-28T17:55:24.660Z,1006.25
2022-08-28T17:57:57.950Z,1006.27
2022-08-28T18:00:30.804Z,1006.29
2022-08-28T18:03:03.857Z,1006.31
2022-08-28T18:05:38.935Z,1006.31
2022-08-28T18:08:13.366Z,1006.33
2022-08-28T18:10:46.851Z,1006.35
2022-08-28T18:13:19.680Z,1006.37
2022-08-28T18:15:56.875Z,1006.38
2022-08-28T18:18:39.757Z,1006.39
2022-08-28T18:21:12.895Z,1006.39
2022-08-28T18:23:45.945Z,1006.39
2022-08-28T18:26:18.820Z,1006.41
2022-08-28T18:28:51.901Z,1006.43
2022-08-28T18:31:24.964Z,1006.46
2022-08-28T18:33:57.751Z,1006.49
2022-08-28T18:36:30.823Z,1006.51
2022-08-28T18:39:03.781Z,1006.54
2022-08-28T18:41:43.911Z,1006.56
2022-08-28T18:44:09.829Z,1006.59
2022-08-28T18:46:42.893Z,1006.61
2022-08-28T18:49:15.774Z,1006.63
2022-08-28T18:51:49.124Z,1006.66
2022-08-28T18:54:21.755Z,1006.69
2022-08-28T18:56:59.673Z,1006.72
2022-08-28T18:59:28.043Z,1006.75
2022-08-28T19:02:01.233Z,1006.77
2022-08-28T19:04:33.970Z,1006.79
2022-08-28T19:07:06.872Z,1006.80
2022-08-28T19:09:39.826Z,1006.83
2022-08-28T19:12:12.842Z,1006.86
2022-08-28T19:14:45.959Z,1006.90
2022-08-28T19:17:21.088Z,1006.93
2022-08-28T19:19:52.008Z,1006.97
2022-08-28T19:22:24.828Z,1006.99
2022-08-28T19:24:57.961Z,1007.01
2022-08-28T19:27:30.923Z,1007.05
2022-08-28T19:30:04.037Z,1007.10
2022-08-28T19:32:36.943Z,1007.12
2022-08-28T19:35:10.018Z,1007.15
2022-08-28T19:37:42.889Z,1007.18
2022-08-28T19:40:15.982Z,1007.20
2022-08-28T19:42:49.017Z,1007.22
2022-08-28T19:45:22.107Z,1007.23
2022-08-28T19:47:54.893Z,1007.25
2022-08-28T19:50:27.837Z,1007.28
2022-08-28T19:53:01.235Z,1007.31
2022-08-28T19:55:34.255Z,1007.35
2022-08-28T19:58:06.984Z,1007.39
2022-08-28T20:00:40.163Z,1007.43
2022-08-28T20:03:12.827Z,1007.48
2022-08-28T20:05:46.258Z,1007.51
2022-08-28T20:08:19.243Z,1007.54
2022-08-28T20:10:51.837Z,1007.57
2022-08-28T20:13:25.115Z,1007.59
2022-08-28T20:15:58.204Z,1007.61
2022-08-28T20:18:31.016Z,1007.64
2022-08-28T20:21:04.205Z,1007.65
2022-08-28T20:23:37.030Z,1007.66
2022-08-28T20:26:10.091Z,1007.66
2022-08-28T20:28:42.998Z,1007.65
2022-08-28T20:31:16.106Z,1007.66
2022-08-28T20:33:49.017Z,1007.65
2022-08-28T20:36:22.890Z,1007.68
2022-08-28T20:38:55.946Z,1007.69
2022-08-28T20:41:28.956Z,1007.70
2022-08-28T20:44:01.930Z,1007.71
2022-08-28T20:46:40.521Z,1007.70
2022-08-28T20:49:08.265Z,1007.72
2022-08-28T20:51:41.215Z,1007.74
2022-08-28T20:54:14.322Z,1007.75
2022-08-28T20:56:47.372Z,1007.77
2022-08-28T20:59:21.352Z,1007.77
2022-08-28T21:01:54.355Z,1007.78
2022-08-28T21:04:27.198Z,1007.79
2022-08-28T21:07:00.322Z,1007.82
2022-08-28T21:09:43.957Z,1007.86
2022-08-28T21:12:06.340Z,1007.87
2022-08-28T21:14:39.312Z,1007.89
2022-08-28T21:17:12.366Z,1007.92
2022-08-28T21:19:45.290Z,1007.95
2022-08-28T21:22:18.361Z,1007.98
2022-08-28T21:24:51.310Z,1008.00
2022-08-28T21:27:24.300Z,1008.02
2022-08-28T21:29:57.385Z,1008.04
2022-08-28T21:32:30.282Z,1008.05
2022-08-28T21:35:03.356Z,1008.08
2022-08-28T21:37:36.257Z,1008.10
2022-08-28T21:40:09.449Z,1008.12
2022-08-28T21:42:42.283Z,1008.13
2022-08-28T21:45:15.340Z,1008.15
2022-08-28T21:47:48.347Z,1008.16
2022-08-28T21:50:21.377Z,1008.16
2022-08-28T21:52:54.159Z,1008.18
2022-08-28T21:55:27.267Z,1008.20
2022-08-28T21:58:00.293Z,1008.21
2022-08-28T22:00:33.368Z,1008.24
2022-08-28T22:03:06.418Z,1008.25
2022-08-28T22:05:39.427Z,1008.27
2022-08-28T22:08:12.367Z,1008.29
2022-08-28T22:10:45.426Z,1008.33
2022-08-28T22:13:18.403Z,1008.33
2022-08-28T22:15:51.375Z,1008.35
2022-08-28T22:18:24.332Z,1008.35
2022-08-28T22:20:57.359Z,1008.37
2022-08-28T22:23:30.429Z,1008.38
2022-08-28T22:26:03.451Z,1008.41
2022-08-28T22:28:36.437Z,1008.43
2022-08-28T22:31:09.319Z,1008.44
2022-08-28T22:33:42.454Z,1008.46
2022-08-28T22:36:15.356Z,1008.46
2022-08-28T22:38:53.141Z,1008.47
2022-08-28T22:41:21.357Z,1008.48
2022-08-28T22:43:54.372Z,1008.47
2022-08-28T22:46:27.372Z,1008.45
2022-08-28T22:49:00.337Z,1008.45
2022-08-28T22:51:33.416Z,1008.47
2022-08-28T22:54:06.390Z,1008.47
2022-08-28T22:56:39.439Z,1008.48
2022-08-28T22:59:12.464Z,1008.50
2022-08-28T23:01:45.354Z,1008.49
2022-08-28T23:04:18.605Z,1008.50
2022-08-28T23:06:51.466Z,1008.51
2022-08-28T23:09:24.388Z,1008.53
2022-08-28T23:12:00.021Z,1008.53
2022-08-28T23:14:30.511Z,1008.55
2022-08-28T23:17:03.456Z,1008.54
2022-08-28T23:19:36.503Z,1008.56
2022-08-28T23:22:09.465Z,1008.58
2022-08-28T23:24:42.487Z,1008.58
2022-08-28T23:27:35.452Z,1008.57
2022-08-28T23:29:53.337Z,1008.55
2022-08-28T23:32:21.403Z,1008.54
2022-08-28T23:34:54.450Z,1008.54
2022-08-28T23:37:27.442Z,1008.54
2022-08-28T23:40:00.735Z,1008.53
2022-08-28T23:42:33.506Z,1008.53
2022-08-28T23:45:06.537Z,1008.52
2022-08-28T23:47:40.626Z,1008.51
2022-08-28T23:50:12.540Z,1008.50
2022-08-28T23:52:45.483Z,1008.49
2022-08-28T23:55:18.450Z,1008.49
2022-08-28T23:57:52.320Z,1008.48
